Aérodrome :
LOGIN :

S'inscrire | Disclaimer

   EN    FR    IT 

 










Légende :    VFR   VFR Marginal   IFR   IFR Intensif   IFR Très Intensif
Visi : 
Plafond : 
>= 8 km
>= 3000ft
5 à 8 km
1000 à 3000 ft
1500m à 5 km
500 à 1000 ft
800 à 1500m
200 à 500 ft
< 800m
< 200 ft
Symboles :   Orages  Brouillard  Fortes neiges  Fortes précipitations  Vent > 20 kt
SIGMETs :   Divers  Orages  Givrage  Turbulence  Onde Orograph.  Cendres Volcan.






- Altitude de l'aérodrome : 1197 ft
- Code IATA : SPM


ETAD - Spangdahlem Ab

DERNIER METAR :
  • 141155Z 21014KT 9999 OVC010 14/11 A2980 RMK AO2A CIG 009 RWY04 SLP083 60000 70002 T01400113 10145 20107 58005 $

METARs EXPIRÉS :
  • 141055Z 20010KT 9999 OVC011 14/11 A2981 RMK AO2A SLP086 T01390111 $
  • 140955Z 21011KT 9999 OVC012 13/11 A2982 RMK AO2A SLP090 T01310108 $
  • 140855Z 20011KT 9999 OVC011 14/12 A2982 RMK AO2A SLP089 60000 T01380115 57004
  • 140755Z 19010KT 9999 BKN009 OVC023 11/10 A2982 RMK AO2A DZE0659 SLP090 P0000 T01140096 $
  • 140729Z 19008KT 9999 SCT007 OVC029 11/09 A2982 RMK AO2A DZE0659 SLP090 $
  • 140659Z AUTO 18004KT 9999 SCT007 BKN025 OVC033 11/10 A2982 RMK AO2 DZE59 SLP090 $

TAF AMD TAF ETAD
Valide du 14 à 09h jusqu'au 15 à 10h UTC


140905Z 1409/1510 19012KT 9000 -SHRA BKN012 QNH2980INS
TEMPO 1409/1412 20012G20KT 6000 -RA
BECMG 1413/1414 21010G18KT 9000 -SHRA BKN030 QNH2969INS
BECMG 1420/1421 19012G20KT 8000 -SHRA BKN010 QNH2960INS
BECMG 1506/1507 24015G25KT 9999 NSW BKN025 QNH2971INS TX17/1414Z TN11/1506Z



MET'MAP, la Météo Aéronautique d'un coup d'oeil ! - Copyright ORBIFLY Décembre 2007 - Disclaimer

ORBIFLY MET'MAP TEAM :

Programmation & Développement : Alexandra Zaïnal
Sur une idée originale de : Baudouin d'Aumeries
Soutien technique & logistique : Manuel Goepfert
Assistance : Marc-Olivier Méhu




SOURCES & CREDITS :

   NOAA